sensor_id;sensor_type;location;lat;lon;timestamp;pressure;altitude;pressure_sealevel;temperature;humidity
12626;BME280;6378;42.684;23.372;2023-12-14T00:01:45;94097.63;;;7.02;100.00
12626;BME280;6378;42.684;23.372;2023-12-14T00:04:11;94128.50;;;7.00;100.00
12626;BME280;6378;42.684;23.372;2023-12-14T00:06:37;94126.47;;;6.93;100.00
12626;BME280;6378;42.684;23.372;2023-12-14T00:09:03;94108.41;;;6.90;100.00
12626;BME280;6378;42.684;23.372;2023-12-14T00:11:28;94104.94;;;6.74;100.00
12626;BME280;6378;42.684;23.372;2023-12-14T00:13:54;94109.41;;;6.54;100.00
12626;BME280;6378;42.684;23.372;2023-12-14T00:16:19;94086.38;;;6.65;100.00
12626;BME280;6378;42.684;23.372;2023-12-14T00:18:45;94106.03;;;6.57;100.00
12626;BME280;6378;42.684;23.372;2023-12-14T00:21:11;94116.75;;;6.73;100.00
12626;BME280;6378;42.684;23.372;2023-12-14T00:23:36;94100.88;;;6.80;100.00
12626;BME280;6378;42.684;23.372;2023-12-14T00:26:02;94083.28;;;6.63;100.00
12626;BME280;6378;42.684;23.372;2023-12-14T00:28:28;94118.50;;;6.81;100.00
12626;BME280;6378;42.684;23.372;2023-12-14T00:30:53;94093.75;;;6.84;100.00
12626;BME280;6378;42.684;23.372;2023-12-14T00:33:19;94112.03;;;6.97;100.00
12626;BME280;6378;42.684;23.372;2023-12-14T00:35:44;94120.94;;;7.02;100.00
12626;BME280;6378;42.684;23.372;2023-12-14T00:38:10;94120.84;;;6.98;100.00
12626;BME280;6378;42.684;23.372;2023-12-14T00:40:35;94096.19;;;6.89;100.00
12626;BME280;6378;42.684;23.372;2023-12-14T00:43:01;94121.72;;;7.02;100.00
12626;BME280;6378;42.684;23.372;2023-12-14T00:45:26;94119.44;;;7.04;100.00
12626;BME280;6378;42.684;23.372;2023-12-14T00:47:52;94131.56;;;6.98;100.00
12626;BME280;6378;42.684;23.372;2023-12-14T00:50:17;94112.34;;;6.80;100.00
12626;BME280;6378;42.684;23.372;2023-12-14T00:52:43;94125.22;;;6.90;100.00
12626;BME280;6378;42.684;23.372;2023-12-14T00:55:08;94117.44;;;6.70;100.00
12626;BME280;6378;42.684;23.372;2023-12-14T00:57:34;94091.13;;;6.72;100.00
12626;BME280;6378;42.684;23.372;2023-12-14T00:59:59;94101.06;;;6.87;100.00
12626;BME280;6378;42.684;23.372;2023-12-14T01:02:24;94115.75;;;6.93;100.00
12626;BME280;6378;42.684;23.372;2023-12-14T01:04:50;94125.22;;;6.90;100.00
12626;BME280;6378;42.684;23.372;2023-12-14T01:07:15;94101.34;;;6.82;100.00
12626;BME280;6378;42.684;23.372;2023-12-14T01:09:41;94124.19;;;6.95;100.00
12626;BME280;6378;42.684;23.372;2023-12-14T01:12:06;94118.44;;;6.93;100.00
12626;BME280;6378;42.684;23.372;2023-12-14T01:14:32;94117.41;;;6.97;100.00
12626;BME280;6378;42.684;23.372;2023-12-14T01:17:16;94115.84;;;6.96;100.00
12626;BME280;6378;42.684;23.372;2023-12-14T01:19:41;94111.78;;;7.03;100.00
12626;BME280;6378;42.684;23.372;2023-12-14T01:22:07;94104.44;;;6.84;100.00
12626;BME280;6378;42.684;23.372;2023-12-14T01:24:32;94123.59;;;7.02;100.00
12626;BME280;6378;42.684;23.372;2023-12-14T01:26:58;94127.28;;;6.81;100.00
12626;BME280;6378;42.684;23.372;2023-12-14T01:29:23;94102.72;;;6.91;100.00
12626;BME280;6378;42.684;23.372;2023-12-14T01:31:49;94069.16;;;6.78;100.00
12626;BME280;6378;42.684;23.372;2023-12-14T01:34:15;94112.88;;;6.86;100.00
12626;BME280;6378;42.684;23.372;2023-12-14T01:36:41;94086.50;;;6.69;100.00
12626;BME280;6378;42.684;23.372;2023-12-14T01:39:07;94115.03;;;6.80;100.00
12626;BME280;6378;42.684;23.372;2023-12-14T01:41:32;94107.78;;;6.81;100.00
12626;BME280;6378;42.684;23.372;2023-12-14T01:43:58;94116.94;;;6.80;100.00
12626;BME280;6378;42.684;23.372;2023-12-14T01:46:23;94112.03;;;6.82;100.00
12626;BME280;6378;42.684;23.372;2023-12-14T01:48:49;94105.56;;;6.83;100.00
12626;BME280;6378;42.684;23.372;2023-12-14T01:51:17;94095.72;;;6.87;100.00
12626;BME280;6378;42.684;23.372;2023-12-14T01:53:42;94090.03;;;6.88;100.00
12626;BME280;6378;42.684;23.372;2023-12-14T01:56:08;94090.69;;;6.70;100.00
12626;BME280;6378;42.684;23.372;2023-12-14T01:58:34;94106.69;;;6.82;100.00
12626;BME280;6378;42.684;23.372;2023-12-14T02:01:08;94106.69;;;6.82;100.00
12626;BME280;6378;42.684;23.372;2023-12-14T02:03:44;94081.31;;;6.91;100.00
12626;BME280;6378;42.684;23.372;2023-12-14T02:06:09;94111.16;;;6.78;100.00
12626;BME280;6378;42.684;23.372;2023-12-14T02:08:35;94078.59;;;6.44;100.00
12626;BME280;6378;42.684;23.372;2023-12-14T02:11:00;94090.34;;;6.71;100.00
12626;BME280;6378;42.684;23.372;2023-12-14T02:13:26;94076.53;;;6.53;100.00
12626;BME280;6378;42.684;23.372;2023-12-14T02:15:52;94070.69;;;6.79;100.00
12626;BME280;6378;42.684;23.372;2023-12-14T02:18:19;94093.38;;;6.70;100.00
12626;BME280;6378;42.684;23.372;2023-12-14T02:20:44;94080.19;;;6.77;100.00
12626;BME280;6378;42.684;23.372;2023-12-14T02:23:10;94082.28;;;6.83;100.00
12626;BME280;6378;42.684;23.372;2023-12-14T02:25:35;94070.19;;;6.89;100.00
12626;BME280;6378;42.684;23.372;2023-12-14T02:28:01;94061.28;;;6.70;100.00
12626;BME280;6378;42.684;23.372;2023-12-14T02:30:26;94078.38;;;6.81;100.00
12626;BME280;6378;42.684;23.372;2023-12-14T02:32:51;94037.66;;;6.56;100.00
12626;BME280;6378;42.684;23.372;2023-12-14T02:35:17;94073.66;;;6.74;100.00
12626;BME280;6378;42.684;23.372;2023-12-14T02:37:43;94069.56;;;6.65;100.00
12626;BME280;6378;42.684;23.372;2023-12-14T02:40:09;94069.41;;;6.73;100.00
12626;BME280;6378;42.684;23.372;2023-12-14T02:42:36;94079.06;;;6.62;100.00
12626;BME280;6378;42.684;23.372;2023-12-14T02:45:02;94080.56;;;6.47;100.00
12626;BME280;6378;42.684;23.372;2023-12-14T02:47:28;94082.06;;;6.61;100.00
12626;BME280;6378;42.684;23.372;2023-12-14T02:49:54;94076.03;;;6.64;100.00
12626;BME280;6378;42.684;23.372;2023-12-14T02:52:20;94095.28;;;6.69;100.00
12626;BME280;6378;42.684;23.372;2023-12-14T02:54:45;94085.47;;;6.73;100.00
12626;BME280;6378;42.684;23.372;2023-12-14T02:57:11;94083.88;;;6.57;100.00
12626;BME280;6378;42.684;23.372;2023-12-14T02:59:36;94101.56;;;6.61;100.00
12626;BME280;6378;42.684;23.372;2023-12-14T03:02:02;94045.13;;;6.50;100.00
12626;BME280;6378;42.684;23.372;2023-12-14T03:04:28;94097.50;;;6.67;100.00
12626;BME280;6378;42.684;23.372;2023-12-14T03:06:53;94086.38;;;6.49;100.00
12626;BME280;6378;42.684;23.372;2023-12-14T03:09:19;94072.59;;;6.63;100.00
12626;BME280;6378;42.684;23.372;2023-12-14T03:11:45;94082.91;;;6.65;100.00
12626;BME280;6378;42.684;23.372;2023-12-14T03:14:10;94074.31;;;6.71;100.00
12626;BME280;6378;42.684;23.372;2023-12-14T03:16:36;94062.22;;;6.62;100.00
12626;BME280;6378;42.684;23.372;2023-12-14T03:19:02;94066.19;;;6.52;100.00
12626;BME280;6378;42.684;23.372;2023-12-14T03:21:28;94035.47;;;6.46;100.00
12626;BME280;6378;42.684;23.372;2023-12-14T03:23:54;94077.44;;;6.73;100.00
12626;BME280;6378;42.684;23.372;2023-12-14T03:26:19;94068.53;;;6.85;100.00
12626;BME280;6378;42.684;23.372;2023-12-14T03:28:45;94070.28;;;6.93;100.00
12626;BME280;6378;42.684;23.372;2023-12-14T03:31:11;94060.69;;;6.92;100.00
12626;BME280;6378;42.684;23.372;2023-12-14T03:33:37;94076.75;;;6.92;100.00
12626;BME280;6378;42.684;23.372;2023-12-14T03:36:03;94033.16;;;6.76;100.00
12626;BME280;6378;42.684;23.372;2023-12-14T03:38:29;94043.16;;;6.94;100.00
12626;BME280;6378;42.684;23.372;2023-12-14T03:40:55;94018.34;;;6.78;100.00
12626;BME280;6378;42.684;23.372;2023-12-14T03:43:20;94064.75;;;7.02;100.00
12626;BME280;6378;42.684;23.372;2023-12-14T03:45:46;94041.78;;;7.01;100.00
12626;BME280;6378;42.684;23.372;2023-12-14T03:48:11;94038.25;;;7.12;100.00
12626;BME280;6378;42.684;23.372;2023-12-14T03:50:37;94019.97;;;6.99;100.00
12626;BME280;6378;42.684;23.372;2023-12-14T03:53:02;94051.44;;;7.05;100.00
12626;BME280;6378;42.684;23.372;2023-12-14T03:55:28;94014.06;;;7.09;100.00
12626;BME280;6378;42.684;23.372;2023-12-14T03:57:53;94038.78;;;7.02;100.00
12626;BME280;6378;42.684;23.372;2023-12-14T04:00:19;94036.09;;;6.86;100.00
12626;BME280;6378;42.684;23.372;2023-12-14T04:02:45;94052.94;;;7.03;100.00
12626;BME280;6378;42.684;23.372;2023-12-14T04:05:10;94030.75;;;6.71;100.00
12626;BME280;6378;42.684;23.372;2023-12-14T04:07:37;94031.44;;;6.68;100.00
12626;BME280;6378;42.684;23.372;2023-12-14T04:10:09;94055.69;;;6.75;100.00
12626;BME280;6378;42.684;23.372;2023-12-14T04:12:35;94050.53;;;6.82;100.00
12626;BME280;6378;42.684;23.372;2023-12-14T04:15:01;94038.19;;;6.93;100.00
12626;BME280;6378;42.684;23.372;2023-12-14T04:17:27;94056.22;;;6.96;100.00
12626;BME280;6378;42.684;23.372;2023-12-14T04:19:53;94030.34;;;6.69;100.00
12626;BME280;6378;42.684;23.372;2023-12-14T04:22:18;94042.41;;;6.78;100.00
12626;BME280;6378;42.684;23.372;2023-12-14T04:24:44;94052.75;;;6.95;100.00
12626;BME280;6378;42.684;23.372;2023-12-14T04:27:09;94010.31;;;6.63;100.00
12626;BME280;6378;42.684;23.372;2023-12-14T04:29:34;94066.03;;;6.76;100.00
12626;BME280;6378;42.684;23.372;2023-12-14T04:32:00;94049.66;;;6.62;100.00
12626;BME280;6378;42.684;23.372;2023-12-14T04:34:25;94058.50;;;6.50;100.00
12626;BME280;6378;42.684;23.372;2023-12-14T04:36:51;94038.81;;;6.27;100.00
12626;BME280;6378;42.684;23.372;2023-12-14T04:39:18;94070.94;;;6.15;100.00
12626;BME280;6378;42.684;23.372;2023-12-14T04:41:44;94039.44;;;5.81;100.00
12626;BME280;6378;42.684;23.372;2023-12-14T04:44:09;94059.41;;;5.99;100.00
12626;BME280;6378;42.684;23.372;2023-12-14T04:46:35;94066.09;;;5.93;100.00
12626;BME280;6378;42.684;23.372;2023-12-14T04:49:01;94057.69;;;5.91;100.00
12626;BME280;6378;42.684;23.372;2023-12-14T04:51:27;94054.13;;;5.75;100.00
12626;BME280;6378;42.684;23.372;2023-12-14T04:53:52;94076.72;;;5.65;100.00
12626;BME280;6378;42.684;23.372;2023-12-14T04:56:18;94064.03;;;5.74;100.00
12626;BME280;6378;42.684;23.372;2023-12-14T04:58:43;94051.53;;;5.50;100.00
12626;BME280;6378;42.684;23.372;2023-12-14T05:01:09;94062.13;;;5.75;100.00
12626;BME280;6378;42.684;23.372;2023-12-14T05:03:35;94064.59;;;5.67;100.00
12626;BME280;6378;42.684;23.372;2023-12-14T05:06:01;94059.69;;;5.70;100.00
12626;BME280;6378;42.684;23.372;2023-12-14T05:08:26;94048.28;;;5.57;100.00
12626;BME280;6378;42.684;23.372;2023-12-14T05:10:52;94027.06;;;5.48;100.00
12626;BME280;6378;42.684;23.372;2023-12-14T05:13:18;94054.50;;;5.61;100.00
12626;BME280;6378;42.684;23.372;2023-12-14T05:15:43;94023.25;;;5.61;100.00
12626;BME280;6378;42.684;23.372;2023-12-14T05:18:09;94066.81;;;5.90;100.00
12626;BME280;6378;42.684;23.372;2023-12-14T05:20:35;94054.44;;;5.85;100.00
12626;BME280;6378;42.684;23.372;2023-12-14T05:23:01;94067.91;;;5.77;100.00
12626;BME280;6378;42.684;23.372;2023-12-14T05:25:26;94058.09;;;5.93;100.00
12626;BME280;6378;42.684;23.372;2023-12-14T05:27:52;94070.19;;;6.02;100.00
12626;BME280;6378;42.684;23.372;2023-12-14T05:30:17;94027.47;;;6.02;100.00
12626;BME280;6378;42.684;23.372;2023-12-14T05:32:43;94081.66;;;6.03;100.00
12626;BME280;6378;42.684;23.372;2023-12-14T05:35:09;94040.09;;;5.90;100.00
12626;BME280;6378;42.684;23.372;2023-12-14T05:37:35;94087.00;;;6.03;100.00
12626;BME280;6378;42.684;23.372;2023-12-14T05:40:01;94056.41;;;6.00;100.00
12626;BME280;6378;42.684;23.372;2023-12-14T05:42:27;94070.00;;;5.83;100.00
12626;BME280;6378;42.684;23.372;2023-12-14T05:44:54;94048.97;;;6.22;100.00
12626;BME280;6378;42.684;23.372;2023-12-14T05:47:19;94065.97;;;6.29;100.00
12626;BME280;6378;42.684;23.372;2023-12-14T05:49:45;94076.59;;;6.41;100.00
12626;BME280;6378;42.684;23.372;2023-12-14T05:52:11;94090.56;;;6.50;100.00
12626;BME280;6378;42.684;23.372;2023-12-14T05:54:37;94083.91;;;6.72;100.00
12626;BME280;6378;42.684;23.372;2023-12-14T05:57:03;94090.97;;;6.96;100.00
12626;BME280;6378;42.684;23.372;2023-12-14T05:59:28;94075.53;;;6.89;100.00
12626;BME280;6378;42.684;23.372;2023-12-14T06:01:57;94057.69;;;6.78;100.00
12626;BME280;6378;42.684;23.372;2023-12-14T06:04:23;94105.81;;;6.78;100.00
12626;BME280;6378;42.684;23.372;2023-12-14T06:06:49;94060.38;;;6.93;100.00
12626;BME280;6378;42.684;23.372;2023-12-14T06:09:14;94075.78;;;7.16;100.00
12626;BME280;6378;42.684;23.372;2023-12-14T06:11:40;94090.50;;;7.57;100.00
12626;BME280;6378;42.684;23.372;2023-12-14T06:14:05;94100.91;;;7.43;100.00
12626;BME280;6378;42.684;23.372;2023-12-14T06:16:31;94072.72;;;7.49;100.00
12626;BME280;6378;42.684;23.372;2023-12-14T06:18:56;94051.16;;;7.42;100.00
12626;BME280;6378;42.684;23.372;2023-12-14T06:21:22;94097.59;;;7.49;100.00
12626;BME280;6378;42.684;23.372;2023-12-14T06:23:50;94090.81;;;7.71;100.00
12626;BME280;6378;42.684;23.372;2023-12-14T06:26:16;94082.81;;;7.55;100.00
12626;BME280;6378;42.684;23.372;2023-12-14T06:28:42;94120.56;;;7.66;100.00
12626;BME280;6378;42.684;23.372;2023-12-14T06:31:12;94101.03;;;7.50;100.00
12626;BME280;6378;42.684;23.372;2023-12-14T06:33:38;94080.16;;;7.55;100.00
12626;BME280;6378;42.684;23.372;2023-12-14T06:36:04;94119.50;;;7.70;100.00
12626;BME280;6378;42.684;23.372;2023-12-14T06:38:30;94108.09;;;7.73;100.00
12626;BME280;6378;42.684;23.372;2023-12-14T06:40:56;94091.94;;;7.70;100.00
12626;BME280;6378;42.684;23.372;2023-12-14T06:43:22;94123.31;;;7.54;100.00
12626;BME280;6378;42.684;23.372;2023-12-14T06:45:47;94120.34;;;7.74;100.00
12626;BME280;6378;42.684;23.372;2023-12-14T06:48:13;94130.28;;;7.74;100.00
12626;BME280;6378;42.684;23.372;2023-12-14T06:50:38;94134.09;;;7.73;100.00
12626;BME280;6378;42.684;23.372;2023-12-14T06:53:04;94108.28;;;7.65;100.00
12626;BME280;6378;42.684;23.372;2023-12-14T06:55:29;94144.66;;;7.66;100.00
12626;BME280;6378;42.684;23.372;2023-12-14T06:57:55;94124.38;;;7.84;100.00
12626;BME280;6378;42.684;23.372;2023-12-14T07:00:20;94116.00;;;7.86;100.00
12626;BME280;6378;42.684;23.372;2023-12-14T07:02:46;94114.22;;;7.74;100.00
12626;BME280;6378;42.684;23.372;2023-12-14T07:05:11;94116.63;;;7.79;100.00
12626;BME280;6378;42.684;23.372;2023-12-14T07:07:37;94122.34;;;7.97;100.00
12626;BME280;6378;42.684;23.372;2023-12-14T07:10:02;94136.97;;;7.99;100.00
12626;BME280;6378;42.684;23.372;2023-12-14T07:12:28;94114.78;;;7.83;100.00
12626;BME280;6378;42.684;23.372;2023-12-14T07:14:53;94104.09;;;8.02;100.00
12626;BME280;6378;42.684;23.372;2023-12-14T07:17:19;94134.88;;;8.27;100.00
12626;BME280;6378;42.684;23.372;2023-12-14T07:19:44;94145.41;;;8.36;100.00
12626;BME280;6378;42.684;23.372;2023-12-14T07:22:10;94106.88;;;8.25;100.00
12626;BME280;6378;42.684;23.372;2023-12-14T07:24:35;94156.59;;;8.57;100.00
12626;BME280;6378;42.684;23.372;2023-12-14T07:27:01;94156.28;;;8.62;100.00
12626;BME280;6378;42.684;23.372;2023-12-14T07:29:26;94142.63;;;8.48;100.00
12626;BME280;6378;42.684;23.372;2023-12-14T07:31:52;94140.06;;;8.55;100.00
12626;BME280;6378;42.684;23.372;2023-12-14T07:34:17;94150.97;;;8.85;100.00
12626;BME280;6378;42.684;23.372;2023-12-14T07:36:44;94128.66;;;8.81;100.00
12626;BME280;6378;42.684;23.372;2023-12-14T07:39:09;94141.16;;;9.16;100.00
12626;BME280;6378;42.684;23.372;2023-12-14T07:41:35;94134.69;;;9.17;100.00
12626;BME280;6378;42.684;23.372;2023-12-14T07:44:01;94146.63;;;9.00;100.00
12626;BME280;6378;42.684;23.372;2023-12-14T07:46:26;94141.72;;;9.02;100.00
12626;BME280;6378;42.684;23.372;2023-12-14T07:48:52;94148.38;;;9.34;100.00
12626;BME280;6378;42.684;23.372;2023-12-14T07:51:17;94163.66;;;9.53;100.00
12626;BME280;6378;42.684;23.372;2023-12-14T07:53:43;94179.25;;;9.67;100.00
12626;BME280;6378;42.684;23.372;2023-12-14T07:56:08;94152.84;;;9.72;100.00
12626;BME280;6378;42.684;23.372;2023-12-14T07:58:34;94155.81;;;9.90;100.00
12626;BME280;6378;42.684;23.372;2023-12-14T08:00:59;94117.84;;;9.69;100.00
12626;BME280;6378;42.684;23.372;2023-12-14T08:03:25;94167.56;;;10.08;100.00
12626;BME280;6378;42.684;23.372;2023-12-14T08:05:50;94140.97;;;10.26;100.00
12626;BME280;6378;42.684;23.372;2023-12-14T08:08:16;94164.66;;;10.47;100.00
12626;BME280;6378;42.684;23.372;2023-12-14T08:10:41;94158.19;;;10.51;100.00
12626;BME280;6378;42.684;23.372;2023-12-14T08:13:07;94113.78;;;10.64;100.00
12626;BME280;6378;42.684;23.372;2023-12-14T08:15:32;94158.13;;;10.77;100.00
12626;BME280;6378;42.684;23.372;2023-12-14T08:17:58;94142.56;;;10.97;100.00
12626;BME280;6378;42.684;23.372;2023-12-14T08:20:24;94141.94;;;11.11;100.00
12626;BME280;6378;42.684;23.372;2023-12-14T08:22:49;94151.78;;;10.96;100.00
12626;BME280;6378;42.684;23.372;2023-12-14T08:25:15;94154.84;;;10.95;100.00
12626;BME280;6378;42.684;23.372;2023-12-14T08:27:41;94161.22;;;11.13;100.00
12626;BME280;6378;42.684;23.372;2023-12-14T08:30:07;94177.09;;;11.25;100.00
12626;BME280;6378;42.684;23.372;2023-12-14T08:32:34;94161.00;;;11.28;100.00
12626;BME280;6378;42.684;23.372;2023-12-14T08:34:59;94146.75;;;10.95;100.00
12626;BME280;6378;42.684;23.372;2023-12-14T08:37:25;94158.13;;;11.14;100.00
12626;BME280;6378;42.684;23.372;2023-12-14T08:39:50;94160.00;;;11.07;100.00
12626;BME280;6378;42.684;23.372;2023-12-14T08:42:16;94150.09;;;11.18;100.00
12626;BME280;6378;42.684;23.372;2023-12-14T08:44:41;94152.63;;;11.44;100.00
12626;BME280;6378;42.684;23.372;2023-12-14T08:47:07;94170.38;;;11.49;100.00
12626;BME280;6378;42.684;23.372;2023-12-14T08:49:34;94158.38;;;11.39;100.00
12626;BME280;6378;42.684;23.372;2023-12-14T08:52:00;94159.47;;;11.35;100.00
12626;BME280;6378;42.684;23.372;2023-12-14T08:54:26;94154.16;;;11.38;100.00
12626;BME280;6378;42.684;23.372;2023-12-14T08:56:51;94159.78;;;11.66;100.00
12626;BME280;6378;42.684;23.372;2023-12-14T08:59:17;94157.59;;;11.79;100.00
12626;BME280;6378;42.684;23.372;2023-12-14T09:01:45;94172.34;;;11.92;100.00
12626;BME280;6378;42.684;23.372;2023-12-14T09:04:11;94172.69;;;11.87;100.00
12626;BME280;6378;42.684;23.372;2023-12-14T09:06:36;94166.88;;;11.82;100.00
12626;BME280;6378;42.684;23.372;2023-12-14T09:09:02;94164.13;;;11.78;100.00
12626;BME280;6378;42.684;23.372;2023-12-14T09:11:29;94174.72;;;12.01;100.00
12626;BME280;6378;42.684;23.372;2023-12-14T09:13:54;94168.34;;;12.30;100.00
12626;BME280;6378;42.684;23.372;2023-12-14T09:16:20;94167.16;;;12.24;100.00
12626;BME280;6378;42.684;23.372;2023-12-14T09:18:46;94138.88;;;12.04;100.00
12626;BME280;6378;42.684;23.372;2023-12-14T09:21:12;94132.44;;;12.23;100.00
12626;BME280;6378;42.684;23.372;2023-12-14T09:23:37;94157.56;;;12.34;100.00
12626;BME280;6378;42.684;23.372;2023-12-14T09:26:03;94136.63;;;12.13;100.00
12626;BME280;6378;42.684;23.372;2023-12-14T09:28:28;94134.06;;;12.34;100.00
12626;BME280;6378;42.684;23.372;2023-12-14T09:30:54;94127.53;;;12.42;100.00
12626;BME280;6378;42.684;23.372;2023-12-14T09:33:19;94165.75;;;12.51;100.00
12626;BME280;6378;42.684;23.372;2023-12-14T09:35:45;94155.41;;;12.71;100.00
12626;BME280;6378;42.684;23.372;2023-12-14T09:38:11;94155.84;;;12.77;100.00
12626;BME280;6378;42.684;23.372;2023-12-14T09:40:39;94173.09;;;12.51;100.00
12626;BME280;6378;42.684;23.372;2023-12-14T09:43:05;94161.22;;;12.73;100.00
12626;BME280;6378;42.684;23.372;2023-12-14T09:45:31;94163.97;;;12.87;100.00
12626;BME280;6378;42.684;23.372;2023-12-14T09:48:00;94158.94;;;12.86;100.00
12626;BME280;6378;42.684;23.372;2023-12-14T09:50:26;94173.69;;;13.02;100.00
12626;BME280;6378;42.684;23.372;2023-12-14T09:52:51;94157.47;;;13.02;100.00
12626;BME280;6378;42.684;23.372;2023-12-14T09:55:17;94186.47;;;13.16;100.00
12626;BME280;6378;42.684;23.372;2023-12-14T09:57:42;94185.78;;;13.33;100.00
12626;BME280;6378;42.684;23.372;2023-12-14T10:00:08;94165.28;;;13.39;100.00
12626;BME280;6378;42.684;23.372;2023-12-14T10:02:39;94179.25;;;13.84;100.00
12626;BME280;6378;42.684;23.372;2023-12-14T10:05:09;94181.97;;;14.16;100.00
12626;BME280;6378;42.684;23.372;2023-12-14T10:07:41;94181.19;;;14.12;100.00
12626;BME280;6378;42.684;23.372;2023-12-14T10:10:13;94169.56;;;14.18;100.00
12626;BME280;6378;42.684;23.372;2023-12-14T10:12:52;94162.63;;;14.03;100.00
12626;BME280;6378;42.684;23.372;2023-12-14T10:15:21;94166.50;;;14.09;100.00
12626;BME280;6378;42.684;23.372;2023-12-14T10:17:51;94171.94;;;14.02;100.00
12626;BME280;6378;42.684;23.372;2023-12-14T10:20:20;94185.06;;;14.11;100.00
12626;BME280;6378;42.684;23.372;2023-12-14T10:22:49;94189.69;;;14.07;99.23
12626;BME280;6378;42.684;23.372;2023-12-14T10:25:15;94180.44;;;13.97;100.00
12626;BME280;6378;42.684;23.372;2023-12-14T10:27:40;94159.94;;;13.89;99.37
12626;BME280;6378;42.684;23.372;2023-12-14T10:30:09;94178.47;;;13.98;100.00
12626;BME280;6378;42.684;23.372;2023-12-14T10:32:38;94158.41;;;13.81;99.32
12626;BME280;6378;42.684;23.372;2023-12-14T10:35:04;94164.19;;;13.94;97.59
12626;BME280;6378;42.684;23.372;2023-12-14T10:37:32;94207.47;;;13.86;99.37
12626;BME280;6378;42.684;23.372;2023-12-14T10:40:02;94200.53;;;13.93;100.00
12626;BME280;6378;42.684;23.372;2023-12-14T10:42:29;94180.41;;;13.83;99.96
12626;BME280;6378;42.684;23.372;2023-12-14T10:44:55;94197.41;;;13.80;100.00
12626;BME280;6378;42.684;23.372;2023-12-14T10:47:20;94199.34;;;13.76;100.00
12626;BME280;6378;42.684;23.372;2023-12-14T10:49:50;94202.03;;;13.62;100.00
12626;BME280;6378;42.684;23.372;2023-12-14T10:52:17;94210.88;;;13.41;100.00
12626;BME280;6378;42.684;23.372;2023-12-14T10:54:45;94217.84;;;13.38;100.00
12626;BME280;6378;42.684;23.372;2023-12-14T10:57:11;94222.38;;;13.20;100.00
12626;BME280;6378;42.684;23.372;2023-12-14T10:59:37;94156.16;;;12.61;100.00
12626;BME280;6378;42.684;23.372;2023-12-14T11:02:09;94206.50;;;13.08;100.00
12626;BME280;6378;42.684;23.372;2023-12-14T11:04:54;94230.41;;;12.99;100.00
12626;BME280;6378;42.684;23.372;2023-12-14T11:07:51;94241.56;;;12.94;100.00
12626;BME280;6378;42.684;23.372;2023-12-14T11:10:36;94255.44;;;12.89;100.00
12626;BME280;6378;42.684;23.372;2023-12-14T11:13:03;94245.63;;;12.59;100.00
12626;BME280;6378;42.684;23.372;2023-12-14T11:15:30;94230.06;;;12.35;100.00
12626;BME280;6378;42.684;23.372;2023-12-14T11:23:09;94244.97;;;11.75;100.00
12626;BME280;6378;42.684;23.372;2023-12-14T11:25:37;94234.72;;;11.54;100.00
12626;BME280;6378;42.684;23.372;2023-12-14T11:28:03;94270.31;;;11.70;100.00
12626;BME280;6378;42.684;23.372;2023-12-14T11:30:30;94255.50;;;11.53;100.00
12626;BME280;6378;42.684;23.372;2023-12-14T11:32:55;94274.72;;;11.48;100.00
12626;BME280;6378;42.684;23.372;2023-12-14T11:35:21;94286.88;;;11.35;100.00
12626;BME280;6378;42.684;23.372;2023-12-14T11:37:46;94272.16;;;11.25;100.00
12626;BME280;6378;42.684;23.372;2023-12-14T11:40:12;94278.59;;;11.17;100.00
12626;BME280;6378;42.684;23.372;2023-12-14T11:42:39;94271.19;;;11.11;100.00
12626;BME280;6378;42.684;23.372;2023-12-14T11:45:04;94277.22;;;11.01;100.00
12626;BME280;6378;42.684;23.372;2023-12-14T11:47:30;94277.63;;;10.99;100.00
12626;BME280;6378;42.684;23.372;2023-12-14T11:49:56;94286.41;;;10.96;100.00
12626;BME280;6378;42.684;23.372;2023-12-14T11:52:21;94295.25;;;10.97;100.00
12626;BME280;6378;42.684;23.372;2023-12-14T11:54:47;94279.66;;;10.79;100.00
12626;BME280;6378;42.684;23.372;2023-12-14T11:57:12;94322.19;;;10.97;100.00
12626;BME280;6378;42.684;23.372;2023-12-14T11:59:38;94299.84;;;10.93;100.00
12626;BME280;6378;42.684;23.372;2023-12-14T12:02:04;94331.06;;;10.71;100.00
12626;BME280;6378;42.684;23.372;2023-12-14T12:04:29;94331.13;;;10.74;100.00
12626;BME280;6378;42.684;23.372;2023-12-14T12:07:05;94325.44;;;10.79;100.00
12626;BME280;6378;42.684;23.372;2023-12-14T12:09:36;94314.03;;;10.63;100.00
12626;BME280;6378;42.684;23.372;2023-12-14T12:12:05;94336.59;;;10.55;100.00
12626;BME280;6378;42.684;23.372;2023-12-14T12:14:30;94320.03;;;10.53;100.00
12626;BME280;6378;42.684;23.372;2023-12-14T12:16:56;94332.34;;;10.54;100.00
12626;BME280;6378;42.684;23.372;2023-12-14T12:19:22;94316.00;;;10.40;100.00
12626;BME280;6378;42.684;23.372;2023-12-14T12:21:47;94330.44;;;10.55;100.00
12626;BME280;6378;42.684;23.372;2023-12-14T12:24:13;94322.56;;;10.42;100.00
12626;BME280;6378;42.684;23.372;2023-12-14T12:26:38;94322.59;;;10.46;100.00
12626;BME280;6378;42.684;23.372;2023-12-14T12:29:04;94326.97;;;10.54;100.00
12626;BME280;6378;42.684;23.372;2023-12-14T12:31:31;94334.88;;;10.43;100.00
12626;BME280;6378;42.684;23.372;2023-12-14T12:33:58;94328.19;;;10.34;100.00
12626;BME280;6378;42.684;23.372;2023-12-14T12:36:23;94327.53;;;10.40;100.00
12626;BME280;6378;42.684;23.372;2023-12-14T12:38:49;94315.31;;;10.20;100.00
12626;BME280;6378;42.684;23.372;2023-12-14T12:41:14;94320.25;;;10.18;100.00
12626;BME280;6378;42.684;23.372;2023-12-14T12:43:40;94233.94;;;9.55;100.00
12626;BME280;6378;42.684;23.372;2023-12-14T12:46:05;94340.69;;;10.23;100.00
12626;BME280;6378;42.684;23.372;2023-12-14T12:48:31;94339.13;;;10.22;100.00
12626;BME280;6378;42.684;23.372;2023-12-14T12:50:56;94331.53;;;10.05;100.00
12626;BME280;6378;42.684;23.372;2023-12-14T12:53:22;94349.22;;;10.06;100.00
12626;BME280;6378;42.684;23.372;2023-12-14T12:55:47;94345.50;;;9.91;100.00
12626;BME280;6378;42.684;23.372;2023-12-14T12:58:13;94347.75;;;9.89;100.00